Wellsville, New York
Current Conditions -  °F | °C
As of 8:56 AM on Wednesday 26 Nov 2014 (Local Time) from KELZ Reporting Station
Overcast Overcast  
Wind Chill: 21°   Ceiling: 1500
Heat Index: 29°   Visibility: 10mi
Dew Point: 22°   Wind: 8mph
Humidity: 75%   Direction: 70°ENE
Pressure: 30.08"   Gusts: NA
Location:  42.13°N, 77.96°W
Report Text: KELZ 261356Z AUTO 07007KT 10SM OVC015 M02/M06 A3008 RMK AO2 SLP211 T10171056
Loading
Personal Weather Stations






























Interactive Weather Map New forecast layout! Learn more

10-Day Weather Forecast

Advertisements
Track Severe Weather on mobile